Time;durP1;ratioP1;P1;durP2;ratioP2;P2;SDS_P1;SDS_P2;PMS_P1;PMS_P2;Temp;Humidity;BMP_temperature;BMP_pressure;BME280_temperature;BME280_humidity;BME280_pressure;Samples;Min_cycle;Max_cycle;Signal;HPM_P1;HPM_P2
2021/09/08 00:01:17;;;;;;;14.82;10.20;;;20.30;85.00;;;;;;4919217;29;20054;-88
2021/09/08 00:03:43;;;;;;;13.65;10.25;;;20.20;85.00;;;;;;4935173;29;20044;-87
2021/09/08 00:06:09;;;;;;;12.18;10.15;;;20.20;85.10;;;;;;4919844;29;20051;-87
2021/09/08 00:08:34;;;;;;;14.65;10.55;;;20.10;85.20;;;;;;4918387;29;20408;-87
2021/09/08 00:11:00;;;;;;;13.07;10.43;;;20.10;85.20;;;;;;4918701;29;20107;-86
2021/09/08 00:13:26;;;;;;;13.68;10.82;;;20.10;85.40;;;;;;4918648;29;20066;-87
2021/09/08 00:15:52;;;;;;;11.60;10.25;;;20.10;85.60;;;;;;4918694;29;20047;-86
2021/09/08 00:18:18;;;;;;;17.02;11.27;;;20.00;85.60;;;;;;4919783;29;20069;-86
2021/09/08 00:20:43;;;;;;;16.42;11.25;;;20.00;85.80;;;;;;4919457;29;20050;-86
2021/09/08 00:23:09;;;;;;;15.02;11.23;;;19.90;86.00;;;;;;4904011;29;20132;-86
2021/09/08 00:25:35;;;;;;;13.73;10.98;;;19.90;86.10;;;;;;4900229;29;20091;-85
2021/09/08 00:28:00;;;;;;;14.43;10.82;;;19.80;86.10;;;;;;4900744;29;20052;-86
2021/09/08 00:30:26;;;;;;;14.15;11.38;;;19.80;86.10;;;;;;4899822;29;20134;-86
2021/09/08 00:32:52;;;;;;;14.48;10.73;;;19.80;86.30;;;;;;4907239;29;20436;-86
2021/09/08 00:35:17;;;;;;;14.90;11.57;;;19.80;86.50;;;;;;4919736;29;20044;-85
2021/09/08 00:37:43;;;;;;;14.65;11.20;;;19.70;86.50;;;;;;4918562;29;20050;-86
2021/09/08 00:40:10;;;;;;;14.75;11.20;;;19.70;86.50;;;;;;4919442;29;20060;-86
2021/09/08 00:42:35;;;;;;;15.98;11.35;;;19.70;86.50;;;;;;4918497;29;20052;-86
2021/09/08 00:45:01;;;;;;;15.07;11.45;;;19.60;86.20;;;;;;4919340;29;20043;-86
2021/09/08 00:47:26;;;;;;;13.32;11.38;;;19.60;86.40;;;;;;4919080;29;20047;-86
2021/09/08 00:49:52;;;;;;;13.13;11.32;;;19.60;86.40;;;;;;4918307;29;20048;-86
2021/09/08 00:52:18;;;;;;;16.50;11.77;;;19.50;86.30;;;;;;4919069;29;20094;-86
2021/09/08 00:54:48;;;;;;;14.13;11.30;;;19.50;86.30;;;;;;4919151;29;20083;-85
2021/09/08 00:57:15;;;;;;;16.08;12.00;;;19.50;86.50;;;;;;4908287;29;20050;-85
2021/09/08 00:59:41;;;;;;;14.45;11.82;;;19.40;86.60;;;;;;4900003;29;20561;-86
2021/09/08 01:02:07;;;;;;;15.40;12.00;;;19.40;86.60;;;;;;4900952;29;20488;-86
2021/09/08 01:04:33;;;;;;;14.88;11.85;;;19.40;86.60;;;;;;4917904;29;20079;-86
2021/09/08 01:06:59;;;;;;;15.82;12.40;;;19.40;86.60;;;;;;4936111;29;20420;-85
2021/09/08 01:09:25;;;;;;;14.73;12.20;;;19.30;86.80;;;;;;4915733;29;20048;-86
2021/09/08 01:11:51;;;;;;;15.38;12.15;;;19.30;86.60;;;;;;4915210;29;20066;-86
2021/09/08 01:14:16;;;;;;;16.42;12.18;;;19.20;86.70;;;;;;4900308;29;20040;-87
2021/09/08 01:16:42;;;;;;;17.15;12.77;;;19.20;86.70;;;;;;4903732;29;20184;-87
2021/09/08 01:19:08;;;;;;;16.50;13.02;;;19.20;86.80;;;;;;4903145;29;20036;-86
2021/09/08 01:21:33;;;;;;;13.82;12.00;;;19.10;86.60;;;;;;4903870;29;20431;-86
2021/09/08 01:24:06;;;;;;;17.02;12.05;;;19.10;86.60;;;;;;4905901;29;20044;-86
2021/09/08 01:26:33;;;;;;;;;;;19.10;86.40;;;;;;4922049;29;20134;-85
2021/09/08 01:28:59;;;;;;;16.60;12.90;;;19.00;85.10;;;;;;4922750;29;20025;-86
2021/09/08 01:31:26;;;;;;;16.70;12.43;;;19.00;86.90;;;;;;4920858;29;20179;-86
2021/09/08 01:33:52;;;;;;;16.63;12.75;;;19.00;86.80;;;;;;4902516;29;20044;-86
2021/09/08 01:36:18;;;;;;;15.35;12.45;;;19.00;86.90;;;;;;4903600;29;20048;-85
2021/09/08 01:38:43;;;;;;;15.90;13.25;;;18.90;86.90;;;;;;4902539;29;20131;-86
2021/09/08 01:41:09;;;;;;;15.52;12.75;;;18.90;86.90;;;;;;4903567;29;20112;-87
2021/09/08 01:43:34;;;;;;;15.63;12.57;;;18.90;87.00;;;;;;4903257;29;20397;-86
2021/09/08 01:46:00;;;;;;;16.88;13.35;;;18.90;87.30;;;;;;4902779;29;20817;-85
2021/09/08 01:48:26;;;;;;;15.88;12.35;;;18.80;87.40;;;;;;4903838;29;20052;-87
2021/09/08 01:50:51;;;;;;;16.33;12.93;;;18.80;87.30;;;;;;4903023;29;20044;-86
2021/09/08 01:53:17;;;;;;;17.20;13.35;;;18.70;86.90;;;;;;4919817;29;20048;-86
2021/09/08 01:55:42;;;;;;;16.05;13.27;;;18.70;87.50;;;;;;4922298;29;20448;-86
2021/09/08 01:58:08;;;;;;;16.48;12.63;;;18.60;88.00;;;;;;4922250;29;20053;-87
2021/09/08 02:00:34;;;;;;;16.25;13.20;;;18.60;88.20;;;;;;4921327;29;20091;-87
2021/09/08 02:02:59;;;;;;;17.48;13.75;;;18.50;87.80;;;;;;4908322;29;20060;-86
2021/09/08 02:05:25;;;;;;;16.45;13.52;;;18.50;88.00;;;;;;4903420;29;20139;-86
2021/09/08 02:07:50;;;;;;;17.30;13.05;;;18.50;88.10;;;;;;4901915;29;20084;-87
2021/09/08 02:10:16;;;;;;;17.70;13.95;;;18.50;88.50;;;;;;4902879;29;20393;-87
2021/09/08 02:12:42;;;;;;;16.08;12.88;;;18.50;88.70;;;;;;4902916;29;20055;-87
2021/09/08 02:15:08;;;;;;;16.88;13.77;;;18.40;88.80;;;;;;4902094;29;20047;-86
2021/09/08 02:17:34;;;;;;;16.95;13.52;;;18.40;89.00;;;;;;4903103;29;20106;-87
2021/09/08 02:20:00;;;;;;;16.48;13.38;;;18.40;89.10;;;;;;4903078;29;20044;-87
2021/09/08 02:22:25;;;;;;;17.05;13.63;;;18.30;89.10;;;;;;4902036;29;20500;-87
2021/09/08 02:24:51;;;;;;;17.25;14.15;;;18.30;89.10;;;;;;4902625;29;20119;-87
2021/09/08 02:27:17;;;;;;;16.80;13.00;;;18.30;88.70;;;;;;4902091;29;20123;-86
2021/09/08 02:29:42;;;;;;;18.75;13.68;;;18.20;88.40;;;;;;4901591;29;20595;-86
2021/09/08 02:32:08;;;;;;;16.50;13.30;;;18.20;88.30;;;;;;4914901;29;20036;-86
2021/09/08 02:34:33;;;;;;;17.65;13.80;;;18.20;87.80;;;;;;4921223;29;20062;-87
2021/09/08 02:37:00;;;;;;;18.30;13.80;;;18.10;88.00;;;;;;4921156;29;20067;-86
2021/09/08 02:39:26;;;;;;;17.23;14.00;;;18.10;88.30;;;;;;4921470;29;20076;-87
2021/09/08 02:41:51;;;;;;;16.33;13.48;;;18.10;89.30;;;;;;4921427;29;20055;-87
2021/09/08 02:44:17;;;;;;;17.70;14.13;;;18.10;88.60;;;;;;4920687;29;20035;-86
2021/09/08 02:46:43;;;;;;;17.88;14.02;;;18.10;88.60;;;;;;4921104;29;20047;-86
2021/09/08 02:49:09;;;;;;;16.63;13.75;;;18.00;88.80;;;;;;4920420;29;20059;-86
2021/09/08 02:51:35;;;;;;;17.27;13.25;;;18.00;88.70;;;;;;4920707;29;20066;-86
2021/09/08 02:54:00;;;;;;;17.67;13.80;;;18.00;88.90;;;;;;4921401;29;20480;-86
2021/09/08 02:56:26;;;;;;;16.95;13.85;;;18.00;88.80;;;;;;4920809;29;20062;-86
2021/09/08 02:58:52;;;;;;;17.35;14.02;;;17.90;88.70;;;;;;4921069;29;20047;-86
2021/09/08 03:01:17;;;;;;;17.95;14.00;;;17.90;88.60;;;;;;4914887;29;20040;-87
2021/09/08 03:03:43;;;;;;;21.50;14.38;;;17.90;88.80;;;;;;4901370;29;20052;-87
2021/09/08 03:06:08;;;;;;;18.23;15.07;;;17.80;88.90;;;;;;4902363;29;20048;-86
2021/09/08 03:08:34;;;;;;;17.98;13.45;;;17.80;88.90;;;;;;4901676;29;20044;-87
2021/09/08 03:10:59;;;;;;;18.17;14.30;;;17.80;88.80;;;;;;4901465;29;20137;-86
2021/09/08 03:13:25;;;;;;;19.33;14.23;;;17.80;89.20;;;;;;4901813;29;20067;-86
2021/09/08 03:15:51;;;;;;;20.80;15.43;;;17.80;89.40;;;;;;4901803;29;20040;-86
2021/09/08 03:18:16;;;;;;;17.35;14.00;;;17.70;89.00;;;;;;4901529;29;20511;-85
2021/09/08 03:20:42;;;;;;;20.58;15.57;;;17.70;89.40;;;;;;4901312;29;20048;-86
2021/09/08 03:23:08;;;;;;;20.13;14.65;;;17.70;89.40;;;;;;4901504;29;20050;-86
2021/09/08 03:25:33;;;;;;;17.35;14.38;;;17.70;89.50;;;;;;4914664;29;20054;-86
2021/09/08 03:27:59;;;;;;;19.05;14.80;;;17.70;89.80;;;;;;4920800;29;20130;-86
2021/09/08 03:30:25;;;;;;;17.58;14.02;;;17.60;90.00;;;;;;4920723;29;20048;-86
2021/09/08 03:32:51;;;;;;;19.45;14.88;;;17.60;90.10;;;;;;4901872;29;20086;-86
2021/09/08 03:35:16;;;;;;;17.35;14.02;;;17.60;89.80;;;;;;4918402;29;20080;-86
2021/09/08 03:37:42;;;;;;;18.17;14.20;;;17.60;90.00;;;;;;4901392;29;20040;-86
2021/09/08 03:40:09;;;;;;;18.40;14.75;;;17.50;90.00;;;;;;4900911;29;20111;-87
2021/09/08 03:42:40;;;;;;;17.70;14.73;;;17.50;90.00;;;;;;4901340;29;20077;-86
2021/09/08 03:45:10;;;;;;;18.75;14.48;;;17.50;90.00;;;;;;4913819;29;20055;-86
2021/09/08 03:47:36;;;;;;;19.42;14.77;;;17.50;90.10;;;;;;4919046;29;20048;-87
2021/09/08 03:50:03;;;;;;;17.02;14.18;;;17.50;90.20;;;;;;4920580;29;20044;-86
2021/09/08 03:52:28;;;;;;;18.58;14.82;;;17.40;90.00;;;;;;4919375;29;20059;-87
2021/09/08 03:54:55;;;;;;;17.05;14.15;;;17.40;89.80;;;;;;4920022;29;20039;-86
2021/09/08 03:57:21;;;;;;;17.70;14.52;;;17.40;89.90;;;;;;4920480;29;20082;-86
2021/09/08 03:59:46;;;;;;;19.33;15.15;;;17.40;90.00;;;;;;4919296;29;20079;-86
2021/09/08 04:02:12;;;;;;;19.38;15.57;;;17.40;90.10;;;;;;4907042;29;20087;-86
2021/09/08 04:04:38;;;;;;;20.05;14.85;;;17.30;90.10;;;;;;4900495;29;20106;-86
2021/09/08 04:07:03;;;;;;;19.38;14.85;;;17.30;90.10;;;;;;4900182;29;20047;-87
2021/09/08 04:09:29;;;;;;;20.25;14.27;;;17.30;90.20;;;;;;4900547;29;20076;-87
2021/09/08 04:11:54;;;;;;;17.95;14.75;;;17.30;90.20;;;;;;4900538;29;20048;-86
2021/09/08 04:14:20;;;;;;;18.27;15.18;;;17.20;90.20;;;;;;4900224;29;20048;-86
2021/09/08 04:16:45;;;;;;;18.60;15.18;;;17.20;90.20;;;;;;4900386;29;20048;-86
2021/09/08 04:19:11;;;;;;;18.40;14.90;;;17.20;90.20;;;;;;4900897;29;20079;-86
2021/09/08 04:21:36;;;;;;;19.80;15.02;;;17.10;90.20;;;;;;4913238;29;20480;-86
2021/09/08 04:24:02;;;;;;;18.02;15.02;;;17.10;90.30;;;;;;4919574;29;20036;-86
2021/09/08 04:26:28;;;;;;;18.17;14.40;;;17.10;90.30;;;;;;4919657;29;20094;-86
2021/09/08 04:28:53;;;;;;;19.85;15.20;;;17.10;90.30;;;;;;4918459;29;20477;-86
2021/09/08 04:31:20;;;;;;;19.08;14.60;;;17.10;90.30;;;;;;4913463;29;20036;-87
2021/09/08 04:33:46;;;;;;;19.08;15.05;;;17.00;90.40;;;;;;4900363;29;20055;-86
2021/09/08 04:36:11;;;;;;;19.55;15.95;;;17.00;90.30;;;;;;4917039;29;20048;-86
2021/09/08 04:38:38;;;;;;;19.90;15.20;;;17.00;90.30;;;;;;4900702;29;20087;-86
2021/09/08 04:41:04;;;;;;;18.52;14.57;;;17.00;90.30;;;;;;4900806;29;20052;-86
2021/09/08 04:43:30;;;;;;;18.92;15.13;;;16.90;90.30;;;;;;4900088;29;20048;-86
2021/09/08 04:45:55;;;;;;;18.67;14.38;;;16.90;90.40;;;;;;4900447;29;20127;-87
2021/09/08 04:48:21;;;;;;;19.65;14.85;;;16.90;90.50;;;;;;4900580;29;20048;-86
2021/09/08 04:50:47;;;;;;;19.88;15.05;;;16.90;90.60;;;;;;4899142;29;20099;-86
2021/09/08 04:53:13;;;;;;;21.42;14.68;;;16.80;90.60;;;;;;4900138;29;20090;-86
2021/09/08 04:55:38;;;;;;;19.80;15.15;;;16.80;90.60;;;;;;4899266;29;20044;-86
2021/09/08 04:58:04;;;;;;;19.13;15.60;;;16.80;90.70;;;;;;4900318;29;20084;-86
2021/09/08 05:00:30;;;;;;;18.45;14.40;;;16.80;90.70;;;;;;4905041;29;20047;-86
2021/09/08 05:02:55;;;;;;;18.42;15.00;;;16.80;90.80;;;;;;4917152;29;20108;-86
2021/09/08 05:05:21;;;;;;;19.25;14.02;;;16.70;90.80;;;;;;4918021;29;20099;-86
2021/09/08 05:07:46;;;;;;;20.35;15.38;;;16.70;90.80;;;;;;4917839;29;20052;-87
2021/09/08 05:10:12;;;;;;;19.63;15.18;;;16.70;90.90;;;;;;4918076;29;20039;-86
2021/09/08 05:12:37;;;;;;;18.15;14.25;;;16.70;90.90;;;;;;4918804;29;20052;-86
2021/09/08 05:15:06;;;;;;;20.60;14.63;;;16.70;91.00;;;;;;4917820;29;20054;-86
2021/09/08 05:17:32;;;;;;;18.75;14.52;;;16.60;91.00;;;;;;4908696;29;20056;-86
2021/09/08 05:19:58;;;;;;;17.80;14.10;;;16.70;91.00;;;;;;4901710;29;20051;-86
2021/09/08 05:22:23;;;;;;;17.58;14.52;;;16.60;90.90;;;;;;4918387;29;20055;-85
2021/09/08 05:24:49;;;;;;;19.77;15.00;;;16.60;90.80;;;;;;4919089;29;20036;-85
2021/09/08 05:27:15;;;;;;;17.00;13.85;;;16.60;90.80;;;;;;4911337;29;20048;-85
2021/09/08 05:29:40;;;;;;;19.08;14.00;;;16.60;90.80;;;;;;4918427;29;20040;-85
2021/09/08 05:32:06;;;;;;;16.40;13.63;;;16.50;90.70;;;;;;4913432;29;20580;-85
2021/09/08 05:34:32;;;;;;;18.33;14.05;;;16.50;90.80;;;;;;4918203;29;20103;-86
2021/09/08 05:36:58;;;;;;;20.00;14.95;;;16.50;90.60;;;;;;4918392;29;20444;-85
2021/09/08 05:39:23;;;;;;;19.45;14.75;;;16.50;90.80;;;;;;4912861;29;20040;-85
2021/09/08 05:41:49;;;;;;;17.15;13.75;;;16.50;90.80;;;;;;4899795;29;20408;-85
2021/09/08 05:44:14;;;;;;;17.63;13.98;;;16.40;90.70;;;;;;4916579;29;20047;-85
2021/09/08 05:46:40;;;;;;;18.02;13.90;;;16.40;90.70;;;;;;4916731;29;20051;-81
2021/09/08 05:49:06;;;;;;;18.35;13.48;;;16.40;90.80;;;;;;4919759;29;20075;-90
2021/09/08 05:51:31;;;;;;;18.35;14.38;;;16.40;90.80;;;;;;4920377;29;20060;-91
2021/09/08 05:53:57;;;;;;;17.90;14.05;;;16.30;90.70;;;;;;4916370;29;20052;-91
2021/09/08 05:56:23;;;;;;;16.08;13.10;;;16.40;90.60;;;;;;4901545;29;20044;-90
2021/09/08 05:58:48;;;;;;;18.52;13.65;;;16.40;90.60;;;;;;4898821;29;20048;-83
2021/09/08 06:01:14;;;;;;;16.67;13.32;;;16.30;90.50;;;;;;4917050;29;20039;-84
2021/09/08 06:03:43;;;;;;;17.38;13.35;;;16.30;90.60;;;;;;4920536;29;20408;-83
2021/09/08 06:06:09;;;;;;;17.73;13.50;;;16.30;90.50;;;;;;4920017;29;20051;-83
2021/09/08 06:08:34;;;;;;;17.95;13.98;;;16.30;90.50;;;;;;4921793;29;20059;-82
2021/09/08 06:11:00;;;;;;;16.85;13.38;;;16.30;90.70;;;;;;4921654;29;20050;-82
2021/09/08 06:13:25;;;;;;;17.75;13.85;;;16.30;90.80;;;;;;4920922;29;20083;-83
2021/09/08 06:15:51;;;;;;;17.33;12.77;;;16.30;90.80;;;;;;4921458;29;20075;-83
2021/09/08 06:18:17;;;;;;;16.25;13.85;;;16.30;90.80;;;;;;4915460;29;20055;-82
2021/09/08 06:20:43;;;;;;;19.75;13.98;;;16.30;90.70;;;;;;4912687;29;20118;-83
2021/09/08 06:23:11;;;;;;;17.98;14.52;;;16.30;90.70;;;;;;4921442;29;20131;-82
2021/09/08 06:25:37;;;;;;;18.10;13.38;;;16.30;90.70;;;;;;4912758;29;20143;-82
2021/09/08 06:28:03;;;;;;;17.88;13.77;;;16.30;90.80;;;;;;4901850;29;20048;-83
2021/09/08 06:30:28;;;;;;;18.80;13.43;;;16.30;90.80;;;;;;4902321;29;20096;-82
2021/09/08 06:32:54;;;;;;;18.27;13.65;;;16.30;90.70;;;;;;4901905;29;20044;-83
2021/09/08 06:35:19;;;;;;;18.13;13.82;;;16.40;90.70;;;;;;4917799;29;20453;-83
2021/09/08 06:37:45;;;;;;;18.35;13.55;;;16.40;90.60;;;;;;4919972;29;20052;-82
2021/09/08 06:40:12;;;;;;;16.52;13.15;;;16.50;90.50;;;;;;4920523;29;20071;-83
2021/09/08 06:42:37;;;;;;;18.05;14.23;;;16.50;90.50;;;;;;4919565;29;20056;-83
2021/09/08 06:45:03;;;;;;;19.33;13.45;;;16.60;90.50;;;;;;4904185;29;20102;-83
2021/09/08 06:47:29;;;;;;;17.15;12.77;;;16.60;90.50;;;;;;4915109;29;20431;-82
2021/09/08 06:49:54;;;;;;;17.98;13.20;;;16.60;90.20;;;;;;4906420;29;20071;-82
2021/09/08 06:52:20;;;;;;;17.60;13.63;;;16.70;90.10;;;;;;4908614;29;20063;-83
2021/09/08 06:54:46;;;;;;;17.25;13.77;;;16.80;90.00;;;;;;4909896;29;20052;-83
2021/09/08 06:57:16;;;;;;;19.98;13.93;;;16.80;90.10;;;;;;4919757;29;20044;-83
2021/09/08 06:59:42;;;;;;;20.60;14.25;;;16.80;90.00;;;;;;4910775;29;20138;-83
2021/09/08 07:02:08;;;;;;;19.00;13.55;;;16.90;90.00;;;;;;4914974;29;20056;-83
2021/09/08 07:04:34;;;;;;;16.83;13.35;;;16.90;90.00;;;;;;4907431;29;20052;-84
2021/09/08 07:07:01;;;;;;;20.40;13.68;;;17.00;89.90;;;;;;4901243;29;20055;-83
2021/09/08 07:09:26;;;;;;;15.57;12.75;;;17.10;89.40;;;;;;4918141;29;20066;-83
2021/09/08 07:11:52;;;;;;;15.77;12.73;;;17.10;89.10;;;;;;4919675;29;20484;-82
2021/09/08 07:14:18;;;;;;;15.77;12.27;;;17.20;88.90;;;;;;4919447;29;20062;-82
2021/09/08 07:16:43;;;;;;;17.30;13.70;;;17.30;88.80;;;;;;4919799;29;20055;-81
2021/09/08 07:19:09;;;;;;;20.02;13.82;;;17.30;88.80;;;;;;4919107;29;20115;-84
2021/09/08 07:21:34;;;;;;;16.88;13.48;;;17.40;89.00;;;;;;4912895;29;20052;-84
2021/09/08 07:24:00;;;;;;;17.85;14.10;;;17.50;89.10;;;;;;4903288;29;20069;-84
2021/09/08 07:26:32;;;;;;;17.15;13.40;;;17.60;89.00;;;;;;4906438;29;20107;-84
2021/09/08 07:28:58;;;;;;;18.52;12.55;;;17.60;88.80;;;;;;4901058;29;20051;-84
2021/09/08 07:31:24;;;;;;;18.40;13.02;;;17.70;88.60;;;;;;4915491;29;20071;-84
2021/09/08 07:33:49;;;;;;;16.48;12.57;;;17.80;88.70;;;;;;4918440;29;20694;-85
2021/09/08 07:36:15;;;;;;;16.67;13.30;;;17.90;88.30;;;;;;4919546;29;20043;-84
2021/09/08 07:38:41;;;;;;;16.38;12.75;;;17.90;88.40;;;;;;4900903;29;20043;-85
2021/09/08 07:41:06;;;;;;;16.15;12.20;;;18.00;88.20;;;;;;4900393;29;20048;-84
2021/09/08 07:43:32;;;;;;;17.25;13.07;;;18.10;88.30;;;;;;4900070;29;20059;-84
2021/09/08 07:45:57;;;;;;;14.60;11.68;;;18.20;88.40;;;;;;4906741;29;20041;-84
2021/09/08 07:48:23;;;;;;;17.23;12.57;;;18.30;88.40;;;;;;4915077;29;20051;-84
2021/09/08 07:50:49;;;;;;;18.63;13.48;;;18.30;88.60;;;;;;4907899;29;20398;-84
2021/09/08 07:53:14;;;;;;;18.63;13.05;;;18.50;88.50;;;;;;4899854;29;20377;-83
2021/09/08 07:55:40;;;;;;;20.05;14.25;;;18.60;88.50;;;;;;4917421;29;20327;-83
2021/09/08 07:58:07;;;;;;;17.45;12.52;;;18.70;88.80;;;;;;4910740;29;20036;-83
2021/09/08 08:00:35;;;;;;;17.33;12.73;;;18.80;88.30;;;;;;4918006;29;20139;-84
2021/09/08 08:03:02;;;;;;;17.58;12.95;;;18.90;87.80;;;;;;4918534;29;20059;-82
2021/09/08 08:05:29;;;;;;;17.90;12.30;;;19.00;87.70;;;;;;4919191;29;20083;-84
2021/09/08 08:07:55;;;;;;;15.77;10.85;;;19.10;87.40;;;;;;4903850;29;20404;-84
2021/09/08 08:10:21;;;;;;;15.60;11.55;;;19.20;87.40;;;;;;4915854;29;20040;-83
2021/09/08 08:12:46;;;;;;;19.13;12.45;;;19.30;87.10;;;;;;4914762;29;20060;-84
2021/09/08 08:15:14;;;;;;;13.82;11.27;;;19.40;86.90;;;;;;4918304;29;20040;-84
2021/09/08 08:17:41;;;;;;;17.08;11.43;;;19.50;86.90;;;;;;4919008;29;20079;-82
2021/09/08 08:20:08;;;;;;;14.43;11.02;;;19.50;86.60;;;;;;4917032;29;20048;-82
2021/09/08 08:22:35;;;;;;;14.15;11.00;;;19.60;86.70;;;;;;4916045;29;20048;-82
2021/09/08 08:25:02;;;;;;;14.88;11.40;;;19.70;86.60;;;;;;4899026;29;20048;-89
2021/09/08 08:27:28;;;;;;;15.85;11.68;;;19.80;86.30;;;;;;4917018;29;20115;-83
2021/09/08 08:29:54;;;;;;;16.20;10.43;;;19.90;86.30;;;;;;4918269;29;20047;-81
2021/09/08 08:32:19;;;;;;;13.88;10.90;;;20.00;86.40;;;;;;4918904;29;20050;-81
2021/09/08 08:34:45;;;;;;;12.68;10.23;;;20.10;86.40;;;;;;4917899;29;20530;-81
2021/09/08 08:37:10;;;;;;;16.48;11.35;;;20.20;86.30;;;;;;4918742;29;20140;-81
2021/09/08 08:39:38;;;;;;;15.75;10.90;;;20.30;86.10;;;;;;4918295;29;20410;-80
2021/09/08 08:42:13;;;;;;;13.52;10.55;;;20.40;86.00;;;;;;4918249;29;20056;-81
2021/09/08 08:44:40;;;;;;;13.98;10.15;;;20.50;85.80;;;;;;4918804;29;20044;-81
2021/09/08 08:47:06;;;;;;;12.25;9.55;;;20.60;85.70;;;;;;4907387;29;20522;-81
2021/09/08 08:49:33;;;;;;;14.63;10.27;;;20.70;85.00;;;;;;4911589;29;20554;-81
2021/09/08 08:51:59;;;;;;;13.88;10.10;;;20.80;85.00;;;;;;4914228;29;20131;-81
2021/09/08 08:54:24;;;;;;;12.95;9.73;;;20.80;84.60;;;;;;4899830;29;20139;-81
2021/09/08 08:56:56;;;;;;;13.45;10.05;;;21.00;85.00;;;;;;4898964;29;20489;-81
2021/09/08 08:59:21;;;;;;;12.88;9.88;;;21.00;84.80;;;;;;4899925;29;20551;-81
2021/09/08 09:01:47;;;;;;;14.88;9.73;;;21.20;85.00;;;;;;4898856;29;20056;-81
2021/09/08 09:04:19;;;;;;;13.75;9.73;;;21.20;84.40;;;;;;4899802;29;20079;-81
2021/09/08 09:06:50;;;;;;;11.40;8.70;;;21.40;84.30;;;;;;4899721;29;20056;-80
2021/09/08 09:09:17;;;;;;;11.57;9.05;;;21.40;84.20;;;;;;4880718;29;20517;-81
2021/09/08 09:11:49;;;;;;;12.13;8.98;;;21.50;84.50;;;;;;4880600;29;20084;-81
2021/09/08 09:14:16;;;;;;;14.43;10.07;;;21.60;84.70;;;;;;4880231;29;20064;-80
2021/09/08 09:16:43;;;;;;;12.80;8.88;;;21.70;84.10;;;;;;4880125;29;20566;-81
2021/09/08 09:19:11;;;;;;;16.02;9.95;;;21.80;83.70;;;;;;4880645;29;20397;-81
2021/09/08 09:21:37;;;;;;;12.50;9.10;;;21.90;82.10;;;;;;4893703;29;20138;-81
2021/09/08 09:24:05;;;;;;;11.60;8.30;;;22.00;83.10;;;;;;4898580;29;20108;-81
2021/09/08 09:26:33;;;;;;;11.65;8.85;;;22.10;83.30;;;;;;4898994;29;20044;-80
2021/09/08 09:29:18;;;;;;;13.15;9.55;;;22.20;83.60;;;;;;4899079;29;20055;-81
2021/09/08 09:31:53;;;;;;;11.63;9.40;;;22.30;82.70;;;;;;4898311;29;20162;-81
2021/09/08 09:34:22;;;;;;;15.75;9.02;;;22.40;83.30;;;;;;4899415;29;20488;-80
2021/09/08 09:36:53;;;;;;;13.60;8.73;;;22.50;82.80;;;;;;4901248;29;20492;-81
2021/09/08 09:39:20;;;;;;;11.30;8.45;;;22.60;82.50;;;;;;4901730;29;20496;-81
2021/09/08 09:41:45;;;;;;;10.75;8.05;;;22.60;82.90;;;;;;4900196;29;20559;-81
2021/09/08 09:44:16;;;;;;;10.50;8.00;;;22.70;82.60;;;;;;4901103;29;20044;-80
2021/09/08 09:46:44;;;;;;;10.38;8.07;;;22.80;82.70;;;;;;4899611;29;20040;-81
2021/09/08 09:49:14;;;;;;;9.60;7.60;;;22.90;82.30;;;;;;4901810;29;20051;-80
2021/09/08 09:51:40;;;;;;;10.43;7.97;;;23.00;82.80;;;;;;4883161;29;20044;-82
2021/09/08 09:54:06;;;;;;;10.35;8.10;;;23.10;80.70;;;;;;4884297;29;20194;-82
2021/09/08 09:56:32;;;;;;;10.18;7.90;;;23.20;80.50;;;;;;4883760;29;20546;-81
2021/09/08 09:58:58;;;;;;;12.18;7.88;;;23.30;80.90;;;;;;4883640;29;20465;-81
2021/09/08 10:01:24;;;;;;;10.10;7.45;;;23.40;81.70;;;;;;4884867;29;20136;-81
2021/09/08 10:03:51;;;;;;;11.27;8.05;;;23.50;80.50;;;;;;4902845;29;20091;-82
2021/09/08 10:06:17;;;;;;;12.18;8.13;;;23.60;81.50;;;;;;4902267;29;20048;-82
2021/09/08 10:08:47;;;;;;;11.60;7.60;;;23.70;81.10;;;;;;4913799;29;20052;-81
2021/09/08 10:11:26;;;;;;;13.25;8.07;;;23.80;81.40;;;;;;4921259;29;20044;-82
2021/09/08 10:14:02;;;;;;;10.80;7.63;;;23.80;79.30;;;;;;4920701;29;20092;-81
2021/09/08 10:16:28;;;;;;;11.35;7.75;;;23.90;80.40;;;;;;4921468;29;20511;-81
2021/09/08 10:18:54;;;;;;;11.60;8.40;;;24.00;79.70;;;;;;4938082;29;20094;-81
2021/09/08 10:21:20;;;;;;;12.75;7.80;;;24.10;77.50;;;;;;4920444;29;20048;-81
2021/09/08 10:24:09;;;;;;;11.85;7.45;;;24.20;79.20;;;;;;4910199;29;20515;-81
2021/09/08 10:26:35;;;;;;;9.73;7.55;;;24.20;79.70;;;;;;4932791;29;20411;-87
2021/09/08 10:29:06;;;;;;;13.93;7.93;;;24.30;80.00;;;;;;4911524;29;20055;-88
2021/09/08 10:31:50;;;;;;;12.65;7.32;;;24.40;78.60;;;;;;4901945;29;20198;-92
2021/09/08 10:34:16;;;;;;;12.32;7.68;;;24.50;77.50;;;;;;4902672;29;20456;-88
2021/09/08 10:36:44;;;;;;;10.50;7.45;;;24.50;75.50;;;;;;4929171;29;20446;-85
2021/09/08 10:39:18;;;;;;;11.18;6.88;;;24.60;78.00;;;;;;4938544;29;20047;-85
2021/09/08 10:41:52;;;;;;;12.38;7.75;;;24.70;79.30;;;;;;4938740;29;20058;-90
2021/09/08 10:44:38;;;;;;;11.05;7.07;;;24.80;75.30;;;;;;4921632;29;20400;-90
2021/09/08 10:47:04;;;;;;;9.75;6.93;;;24.90;77.30;;;;;;4920568;29;20052;-87
2021/09/08 10:49:39;;;;;;;13.73;8.02;;;24.90;77.40;;;;;;4920507;29;20391;-88
2021/09/08 10:52:09;;;;;;;9.77;7.47;;;25.00;75.20;;;;;;4938433;29;20052;-88
2021/09/08 10:54:56;;;;;;;10.32;7.57;;;25.10;76.30;;;;;;4919355;29;20044;-84
2021/09/08 10:57:40;;;;;;;11.20;8.02;;;25.10;77.10;;;;;;4902227;29;20052;-87
2021/09/08 11:00:07;;;;;;;9.93;6.80;;;25.20;73.20;;;;;;4902127;29;20124;-85
2021/09/08 11:02:38;;;;;;;8.77;6.93;;;25.30;75.60;;;;;;4900900;29;20060;-86
2021/09/08 11:05:04;;;;;;;12.27;6.93;;;25.30;76.00;;;;;;4903068;29;20099;-85
2021/09/08 11:07:31;;;;;;;10.20;6.82;;;25.40;75.80;;;;;;4901002;29;20162;-83
2021/09/08 11:09:56;;;;;;;9.90;6.68;;;25.50;76.70;;;;;;4901091;29;20059;-84
2021/09/08 11:12:22;;;;;;;9.10;6.97;;;25.60;77.50;;;;;;4915930;29;20040;-84
2021/09/08 11:14:50;;;;;;;9.73;6.57;;;25.70;77.60;;;;;;4920076;29;20055;-82
2021/09/08 11:17:23;;;;;;;9.18;6.57;;;25.80;78.30;;;;;;4901143;29;20063;-81
2021/09/08 11:19:59;;;;;;;9.95;7.15;;;25.80;78.10;;;;;;4901183;29;20044;-83
2021/09/08 11:22:25;;;;;;;10.48;7.20;;;25.90;76.40;;;;;;4905008;29;20067;-82
2021/09/08 11:25:07;;;;;;;9.90;7.10;;;25.90;74.30;;;;;;4900731;29;20052;-82
2021/09/08 11:27:34;;;;;;;11.50;7.28;;;26.00;75.10;;;;;;4900784;29;20043;-82
2021/09/08 11:30:05;;;;;;;9.00;6.78;;;26.10;72.70;;;;;;4900252;29;20504;-82
2021/09/08 11:33:04;;;;;;;9.40;6.22;;;26.20;75.10;;;;;;4900456;29;20043;-82
2021/09/08 11:35:41;;;;;;;13.13;6.97;;;26.20;75.00;;;;;;4909350;29;20393;-83
2021/09/08 11:38:19;;;;;;;9.15;6.20;;;26.30;72.00;;;;;;4906480;29;20051;-83
2021/09/08 11:40:52;;;;;;;8.40;5.95;;;26.30;73.90;;;;;;4915143;29;20063;-83
2021/09/08 11:43:30;;;;;;;9.25;5.80;;;26.40;74.10;;;;;;4905954;29;20145;-82
2021/09/08 11:45:56;;;;;;;7.70;5.90;;;26.40;75.70;;;;;;4913853;29;20052;-82
2021/09/08 11:48:31;;;;;;;8.32;5.75;;;26.60;75.80;;;;;;4932400;29;20058;-83
2021/09/08 11:51:03;;;;;;;10.10;6.13;;;26.60;74.00;;;;;;4938193;29;20036;-83
2021/09/08 11:53:29;;;;;;;7.27;5.60;;;26.60;68.20;;;;;;4938842;29;20403;-83
2021/09/08 11:56:14;;;;;;;7.65;5.80;;;26.70;72.30;;;;;;4938501;29;20081;-83
2021/09/08 11:58:41;;;;;;;7.50;5.10;;;26.80;74.00;;;;;;4929665;29;20576;-85
2021/09/08 12:01:09;;;;;;;8.27;5.60;;;26.80;71.80;;;;;;4919054;29;20428;-84
2021/09/08 12:04:02;;;;;;;8.02;5.50;;;26.90;70.90;;;;;;4918567;29;20059;-87
2021/09/08 12:06:30;;;;;;;7.93;4.88;;;26.90;72.90;;;;;;4917652;29;20463;-86
2021/09/08 12:08:57;;;;;;;7.28;5.35;;;26.90;73.90;;;;;;4904097;29;20095;-86
2021/09/08 12:11:34;;;;;;;7.57;5.45;;;27.00;74.10;;;;;;4900222;29;20513;-86
2021/09/08 12:14:16;;;;;;;6.20;4.72;;;27.10;74.70;;;;;;4900205;29;20130;-87
2021/09/08 12:16:42;;;;;;;8.83;5.30;;;27.20;72.60;;;;;;4899984;29;20075;-85
2021/09/08 12:19:32;;;;;;;6.97;5.28;;;27.20;73.50;;;;;;4917048;29;20335;-86
2021/09/08 12:22:11;;;;;;;6.57;4.80;;;27.30;74.00;;;;;;4895620;29;20056;-86
2021/09/08 12:24:41;;;;;;;6.90;4.82;;;27.30;71.10;;;;;;4900302;29;20048;-86
2021/09/08 12:27:39;;;;;;;7.15;5.00;;;27.40;69.40;;;;;;4909913;29;20051;-85
2021/09/08 12:30:18;;;;;;;8.02;4.57;;;27.40;71.60;;;;;;4918960;29;20047;-85
2021/09/08 12:32:48;;;;;;;6.60;4.40;;;27.40;66.60;;;;;;4918815;29;20457;-85